createdAt,value
2022-10-24T00:01:23.807Z,13.93
2022-10-24T00:03:51.754Z,13.96
2022-10-24T00:06:20.684Z,14.09
2022-10-24T00:08:48.430Z,14.16
2022-10-24T00:11:27.751Z,14.19
2022-10-24T00:13:57.197Z,13.99
2022-10-24T00:16:24.686Z,14.04
2022-10-24T00:18:51.859Z,13.45
2022-10-24T00:21:19.891Z,13.51
2022-10-24T00:23:47.662Z,13.81
2022-10-24T00:26:16.676Z,13.67
2022-10-24T00:28:44.060Z,13.77
2022-10-24T00:31:17.499Z,13.84
2022-10-24T00:33:45.561Z,13.90
2022-10-24T00:36:21.077Z,13.88
2022-10-24T00:38:52.279Z,13.97
2022-10-24T00:41:26.412Z,13.92
2022-10-24T00:44:25.963Z,13.89
2022-10-24T00:47:19.512Z,14.04
2022-10-24T00:50:14.790Z,13.79
2022-10-24T00:52:47.064Z,13.87
2022-10-24T00:55:15.499Z,13.97
2022-10-24T00:57:53.379Z,14.06
2022-10-24T01:00:27.509Z,14.09
2022-10-24T01:02:54.943Z,14.14
2022-10-24T01:05:30.137Z,14.15
2022-10-24T01:08:54.203Z,14.20
2022-10-24T01:12:29.982Z,14.17
2022-10-24T01:15:19.294Z,14.20
2022-10-24T01:18:20.517Z,14.20
2022-10-24T01:21:12.326Z,14.08
2022-10-24T01:24:32.693Z,13.98
2022-10-24T01:27:32.306Z,14.02
2022-10-24T01:30:14.063Z,13.87
2022-10-24T01:33:11.567Z,13.90
2022-10-24T01:36:03.079Z,13.94
2022-10-24T01:39:05.988Z,13.87
2022-10-24T01:41:33.833Z,13.83
2022-10-24T01:44:10.457Z,13.87
2022-10-24T01:46:55.624Z,13.70
2022-10-24T01:49:29.495Z,13.70
2022-10-24T01:52:01.414Z,13.85
2022-10-24T01:54:29.975Z,13.95
2022-10-24T01:56:56.993Z,13.76
2022-10-24T01:59:28.252Z,13.81
2022-10-24T02:02:37.562Z,13.91
2022-10-24T02:05:12.568Z,13.86
2022-10-24T02:07:43.262Z,13.85
2022-10-24T02:10:30.800Z,13.91
2022-10-24T02:13:19.081Z,13.93
2022-10-24T02:15:53.499Z,13.83
2022-10-24T02:18:20.591Z,13.80
2022-10-24T02:21:23.730Z,13.73
2022-10-24T02:24:15.238Z,13.77
2022-10-24T02:27:21.727Z,13.47
2022-10-24T02:30:14.083Z,13.43
2022-10-24T02:32:52.431Z,13.57
2022-10-24T02:35:27.010Z,13.50
2022-10-24T02:38:07.327Z,13.53
2022-10-24T02:40:35.611Z,13.37
2022-10-24T02:43:04.850Z,13.41
2022-10-24T02:45:34.539Z,13.32
2022-10-24T02:48:06.803Z,13.13
2022-10-24T02:50:34.918Z,13.29
2022-10-24T02:53:01.862Z,13.21
2022-10-24T02:55:29.029Z,13.11
2022-10-24T02:57:55.962Z,12.96
2022-10-24T03:00:22.905Z,12.72
2022-10-24T03:02:49.808Z,12.84
2022-10-24T03:05:16.872Z,12.86
2022-10-24T03:07:43.914Z,12.73
2022-10-24T03:10:10.923Z,12.66
2022-10-24T03:12:37.912Z,12.51
2022-10-24T03:15:06.017Z,12.45
2022-10-24T03:17:32.991Z,12.43
2022-10-24T03:19:59.920Z,12.47
2022-10-24T03:22:30.605Z,12.47
2022-10-24T03:25:01.680Z,12.25
2022-10-24T03:27:29.971Z,12.50
2022-10-24T03:29:56.966Z,12.46
2022-10-24T03:32:24.030Z,12.44
2022-10-24T03:34:50.968Z,12.43
2022-10-24T03:37:18.349Z,12.44
2022-10-24T03:39:45.540Z,12.51
2022-10-24T03:42:12.655Z,12.23
2022-10-24T03:44:39.587Z,12.28
2022-10-24T03:47:06.694Z,12.33
2022-10-24T03:49:33.707Z,12.16
2022-10-24T03:52:00.769Z,12.35
2022-10-24T03:54:27.796Z,12.44
2022-10-24T03:56:54.722Z,12.77
2022-10-24T03:59:24.790Z,12.66
2022-10-24T04:01:51.872Z,12.60
2022-10-24T04:04:18.872Z,12.52
2022-10-24T04:06:45.847Z,12.74
2022-10-24T04:09:13.015Z,12.71
2022-10-24T04:11:40.111Z,12.78
2022-10-24T04:14:07.879Z,12.79
2022-10-24T04:16:35.317Z,12.78
2022-10-24T04:19:02.716Z,12.86
2022-10-24T04:21:29.887Z,12.75
2022-10-24T04:23:57.913Z,12.66
2022-10-24T04:26:25.142Z,12.84
2022-10-24T04:28:52.100Z,12.88
2022-10-24T04:31:22.535Z,12.86
2022-10-24T04:33:50.864Z,12.74
2022-10-24T04:36:18.038Z,12.67
2022-10-24T04:38:44.983Z,12.74
2022-10-24T04:41:12.410Z,12.62
2022-10-24T04:43:40.279Z,12.55
2022-10-24T04:46:08.084Z,12.54
2022-10-24T04:48:35.660Z,12.47
2022-10-24T04:51:02.634Z,12.60
2022-10-24T04:53:29.985Z,12.26
2022-10-24T04:55:57.205Z,12.27
2022-10-24T04:58:24.184Z,12.08
2022-10-24T05:00:51.109Z,12.22
2022-10-24T05:03:19.385Z,12.06
2022-10-24T05:05:47.636Z,11.94
2022-10-24T05:08:15.098Z,11.94
2022-10-24T05:10:42.628Z,11.89
2022-10-24T05:13:10.026Z,12.10
2022-10-24T05:15:37.581Z,12.18
2022-10-24T05:18:05.109Z,12.35
2022-10-24T05:20:32.550Z,12.38
2022-10-24T05:22:59.554Z,12.33
2022-10-24T05:25:27.332Z,12.23
2022-10-24T05:27:54.321Z,12.20
2022-10-24T05:30:21.525Z,12.20
2022-10-24T05:32:48.505Z,12.28
2022-10-24T05:35:15.692Z,12.13
2022-10-24T05:37:43.958Z,12.22
2022-10-24T05:40:12.903Z,12.09
2022-10-24T05:42:40.262Z,12.11
2022-10-24T05:45:10.085Z,12.21
2022-10-24T05:47:38.278Z,12.29
2022-10-24T05:50:07.004Z,12.30
2022-10-24T05:52:36.438Z,12.29
2022-10-24T05:55:08.832Z,12.44
2022-10-24T05:57:38.051Z,12.48
2022-10-24T06:00:14.355Z,12.50
2022-10-24T06:02:42.356Z,12.32
2022-10-24T06:05:10.921Z,12.53
2022-10-24T06:07:41.476Z,12.62
2022-10-24T06:10:11.485Z,12.43
2022-10-24T06:12:39.094Z,12.55
2022-10-24T06:15:09.040Z,12.51
2022-10-24T06:17:36.423Z,12.26
2022-10-24T06:20:04.939Z,12.31
2022-10-24T06:22:31.970Z,12.46
2022-10-24T06:24:59.999Z,12.41
2022-10-24T06:27:27.439Z,12.43
2022-10-24T06:29:54.384Z,12.42
2022-10-24T06:32:21.421Z,12.57
2022-10-24T06:34:48.435Z,12.69
2022-10-24T06:37:15.509Z,12.55
2022-10-24T06:39:42.471Z,12.54
2022-10-24T06:42:09.591Z,12.87
2022-10-24T06:44:36.708Z,12.66
2022-10-24T06:47:03.745Z,12.64
2022-10-24T06:49:30.898Z,12.50
2022-10-24T06:51:58.074Z,12.82
2022-10-24T06:54:27.746Z,12.78
2022-10-24T06:56:57.520Z,12.89
2022-10-24T06:59:24.582Z,12.94
2022-10-24T07:01:52.128Z,12.74
2022-10-24T07:04:19.375Z,13.24
2022-10-24T07:06:46.438Z,13.18
2022-10-24T07:09:15.428Z,13.33
2022-10-24T07:11:47.784Z,13.11
2022-10-24T07:14:14.724Z,13.39
2022-10-24T07:16:41.884Z,13.52
2022-10-24T07:19:08.889Z,13.60
2022-10-24T07:21:35.946Z,13.60
2022-10-24T07:24:04.353Z,13.68
2022-10-24T07:26:31.962Z,13.70
2022-10-24T07:31:37.141Z,13.68
2022-10-24T07:34:08.125Z,13.71
2022-10-24T07:36:41.386Z,13.71
2022-10-24T07:39:10.145Z,13.79
2022-10-24T07:41:41.248Z,13.69
2022-10-24T07:44:10.276Z,13.90
2022-10-24T07:46:38.496Z,14.17
2022-10-24T07:49:05.503Z,14.15
2022-10-24T07:51:32.424Z,14.43
2022-10-24T07:53:59.477Z,14.63
2022-10-24T07:56:26.733Z,14.56
2022-10-24T07:58:56.003Z,14.86
2022-10-24T08:01:29.318Z,15.00
2022-10-24T08:03:57.677Z,15.18
2022-10-24T08:06:31.177Z,15.36
2022-10-24T08:08:58.506Z,15.49
2022-10-24T08:11:28.951Z,15.62
2022-10-24T08:13:57.285Z,15.82
2022-10-24T08:16:26.211Z,15.90
2022-10-24T08:18:56.516Z,15.79
2022-10-24T08:21:25.383Z,15.89
2022-10-24T08:23:55.354Z,16.05
2022-10-24T08:26:25.308Z,16.21
2022-10-24T08:28:55.393Z,16.37
2022-10-24T08:31:26.070Z,16.58
2022-10-24T08:33:55.764Z,16.66
2022-10-24T08:36:28.898Z,16.60
2022-10-24T08:38:56.340Z,16.72
2022-10-24T08:41:46.708Z,16.71
2022-10-24T08:44:44.024Z,16.65
2022-10-24T08:48:06.748Z,16.88
2022-10-24T08:50:36.619Z,17.06
2022-10-24T08:53:31.551Z,17.05
2022-10-24T08:56:01.401Z,17.08
2022-10-24T08:58:46.580Z,17.14
2022-10-24T09:01:30.328Z,17.23
2022-10-24T09:04:04.805Z,17.38
2022-10-24T09:06:33.592Z,17.37
2022-10-24T09:09:19.624Z,17.40
2022-10-24T09:12:13.413Z,17.72
2022-10-24T09:14:44.444Z,17.79
2022-10-24T09:17:33.817Z,17.80
2022-10-24T09:20:32.620Z,17.59
2022-10-24T09:23:05.623Z,17.61
2022-10-24T09:25:40.567Z,17.77
2022-10-24T09:28:07.701Z,17.88
2022-10-24T09:30:37.484Z,17.88
2022-10-24T09:33:35.428Z,17.98
2022-10-24T09:36:05.849Z,17.93
2022-10-24T09:38:36.883Z,18.10
2022-10-24T09:41:29.657Z,17.82
2022-10-24T09:44:02.088Z,17.87
2022-10-24T09:46:44.989Z,18.00
2022-10-24T09:49:22.618Z,18.04
2022-10-24T09:52:25.579Z,18.09
2022-10-24T09:55:28.750Z,18.26
2022-10-24T09:58:00.148Z,18.25
2022-10-24T10:00:35.781Z,18.39
2022-10-24T10:03:23.796Z,18.27
2022-10-24T10:05:54.503Z,18.29
2022-10-24T10:08:35.510Z,18.46
2022-10-24T10:11:12.252Z,18.51
2022-10-24T10:13:55.252Z,18.62
2022-10-24T10:16:38.425Z,18.62
2022-10-24T10:19:21.070Z,18.64
2022-10-24T10:22:03.320Z,18.69
2022-10-24T10:24:35.997Z,18.85
2022-10-24T10:27:36.722Z,18.71
2022-10-24T10:30:14.702Z,18.81
2022-10-24T10:33:39.065Z,19.05
2022-10-24T10:36:31.175Z,18.95
2022-10-24T10:39:45.761Z,18.92
2022-10-24T10:42:49.168Z,18.94
2022-10-24T10:46:05.453Z,18.82
2022-10-24T10:49:15.575Z,18.99
2022-10-24T10:52:27.458Z,18.91
2022-10-24T10:55:29.765Z,18.91
2022-10-24T10:58:32.805Z,19.06
2022-10-24T11:01:39.528Z,19.05
2022-10-24T11:05:04.594Z,19.08
2022-10-24T11:07:40.555Z,19.02
2022-10-24T11:10:16.597Z,18.97
2022-10-24T11:12:45.473Z,18.84
2022-10-24T11:15:37.182Z,19.00
2022-10-24T11:18:29.454Z,19.13
2022-10-24T11:21:13.982Z,19.16
2022-10-24T11:24:13.592Z,19.10
2022-10-24T11:27:06.534Z,19.09
2022-10-24T11:29:50.946Z,19.22
2022-10-24T11:32:42.726Z,19.09
2022-10-24T11:35:37.170Z,19.11
2022-10-24T11:38:18.854Z,19.13
2022-10-24T11:40:54.880Z,19.08
2022-10-24T11:43:36.464Z,19.23
2022-10-24T11:46:26.271Z,19.11
2022-10-24T11:49:11.839Z,19.16
2022-10-24T11:52:01.666Z,18.91
2022-10-24T11:55:01.483Z,18.95
2022-10-24T11:57:31.506Z,19.02
2022-10-24T11:59:59.533Z,19.00
2022-10-24T12:03:19.130Z,19.01
2022-10-24T12:06:22.710Z,19.07
2022-10-24T12:09:44.902Z,19.18
2022-10-24T12:12:57.796Z,19.24
2022-10-24T12:15:39.110Z,19.32
2022-10-24T12:18:26.441Z,19.16
2022-10-24T12:20:56.828Z,19.36
2022-10-24T12:23:31.499Z,19.41
2022-10-24T12:26:18.487Z,19.45
2022-10-24T12:29:07.715Z,19.58
2022-10-24T12:31:38.310Z,19.61
2022-10-24T12:34:20.590Z,19.43
2022-10-24T12:37:31.551Z,19.60
2022-10-24T12:39:59.011Z,19.47
2022-10-24T12:42:26.059Z,19.50
2022-10-24T12:45:23.355Z,19.48
2022-10-24T12:47:53.192Z,19.61
2022-10-24T12:50:22.852Z,19.65
2022-10-24T12:53:34.669Z,19.67
2022-10-24T12:56:14.612Z,19.53
2022-10-24T12:58:45.325Z,19.63
2022-10-24T13:01:35.222Z,19.68
2022-10-24T13:05:05.473Z,19.85
2022-10-24T13:08:20.064Z,20.12
2022-10-24T13:11:00.929Z,20.17
2022-10-24T13:14:00.600Z,20.09
2022-10-24T13:16:58.996Z,19.99
2022-10-24T13:19:27.390Z,19.98
2022-10-24T13:21:59.672Z,20.11
2022-10-24T13:24:40.476Z,19.94
2022-10-24T13:27:12.546Z,19.96
2022-10-24T13:29:39.832Z,20.05
2022-10-24T13:32:07.084Z,19.92
2022-10-24T13:34:54.790Z,19.80
2022-10-24T13:37:50.905Z,19.85
2022-10-24T13:40:34.055Z,19.79
2022-10-24T13:43:14.165Z,19.88
2022-10-24T13:46:19.757Z,19.91
2022-10-24T13:48:49.237Z,19.95
2022-10-24T13:51:46.577Z,20.00
2022-10-24T13:54:33.576Z,20.02
2022-10-24T13:57:02.259Z,20.06
2022-10-24T13:59:37.293Z,19.93
2022-10-24T14:02:18.803Z,19.58
2022-10-24T14:04:48.675Z,19.48
2022-10-24T14:07:33.565Z,19.43
2022-10-24T14:10:11.315Z,19.37
2022-10-24T14:12:41.183Z,19.35
2022-10-24T14:15:23.068Z,19.33
2022-10-24T14:18:14.235Z,19.32
2022-10-24T14:20:43.117Z,19.37
2022-10-24T14:23:39.881Z,19.20
2022-10-24T14:26:20.633Z,19.23
2022-10-24T14:28:59.920Z,19.31
2022-10-24T14:31:34.662Z,19.30
2022-10-24T14:34:05.998Z,19.28
2022-10-24T14:36:37.717Z,19.21
2022-10-24T14:39:06.209Z,19.29
2022-10-24T14:41:40.688Z,19.24
2022-10-24T14:44:11.919Z,19.15
2022-10-24T14:46:42.458Z,19.13
2022-10-24T14:49:27.509Z,19.18
2022-10-24T14:52:16.793Z,19.18
2022-10-24T14:55:04.294Z,19.21
2022-10-24T14:57:35.227Z,19.13
2022-10-24T15:00:08.819Z,19.01
2022-10-24T15:02:43.089Z,19.01
2022-10-24T15:05:22.797Z,18.91
2022-10-24T15:08:21.728Z,18.67
2022-10-24T15:10:50.064Z,18.74
2022-10-24T15:13:21.541Z,18.58
2022-10-24T15:15:57.627Z,18.66
2022-10-24T15:18:43.509Z,18.57
2022-10-24T15:21:22.294Z,18.51
2022-10-24T15:23:59.856Z,18.37
2022-10-24T15:26:40.408Z,18.37
2022-10-24T15:29:23.182Z,18.35
2022-10-24T15:31:52.004Z,18.26
2022-10-24T15:34:23.976Z,18.17
2022-10-24T15:36:53.588Z,18.12
2022-10-24T15:39:25.525Z,18.08
2022-10-24T15:41:53.624Z,18.04
2022-10-24T15:44:30.178Z,17.98
2022-10-24T15:46:57.313Z,17.94
2022-10-24T15:49:24.339Z,17.94
2022-10-24T15:51:51.632Z,17.86
2022-10-24T15:54:22.658Z,17.82
2022-10-24T15:56:50.440Z,17.76
2022-10-24T15:59:20.352Z,17.68
2022-10-24T16:02:05.346Z,17.67
2022-10-24T16:04:33.326Z,17.63
2022-10-24T16:07:01.542Z,17.69
2022-10-24T16:09:28.562Z,17.64
2022-10-24T16:11:55.550Z,17.56
2022-10-24T16:14:27.172Z,17.57
2022-10-24T16:16:55.201Z,17.55
2022-10-24T16:19:26.333Z,17.48
2022-10-24T16:21:58.885Z,17.46
2022-10-24T16:24:28.003Z,17.40
2022-10-24T16:26:55.113Z,17.42
2022-10-24T16:29:22.051Z,17.47
2022-10-24T16:31:50.825Z,17.43
2022-10-24T16:34:17.898Z,17.40
2022-10-24T16:36:44.901Z,17.40
2022-10-24T16:39:14.345Z,17.36
2022-10-24T16:41:45.765Z,17.34
2022-10-24T16:44:14.393Z,17.29
2022-10-24T16:46:47.098Z,17.34
2022-10-24T16:49:14.177Z,17.31
2022-10-24T16:51:43.999Z,17.24
2022-10-24T16:54:11.269Z,17.27
2022-10-24T16:56:38.216Z,17.26
2022-10-24T16:59:05.188Z,17.19
2022-10-24T17:01:32.431Z,17.24
2022-10-24T17:04:00.529Z,17.21
2022-10-24T17:06:27.511Z,17.11
2022-10-24T17:08:54.477Z,17.07
2022-10-24T17:11:43.713Z,17.09
2022-10-24T17:16:42.224Z,17.06
2022-10-24T17:19:16.044Z,17.06
2022-10-24T17:21:48.210Z,17.00
2022-10-24T17:24:24.370Z,17.04
2022-10-24T17:26:52.628Z,16.98
2022-10-24T17:29:31.737Z,16.97
2022-10-24T17:32:03.445Z,16.93
2022-10-24T17:34:30.685Z,16.91
2022-10-24T17:37:22.221Z,16.89
2022-10-24T17:40:02.803Z,16.93
2022-10-24T17:42:29.939Z,16.84
2022-10-24T17:44:57.036Z,16.82
2022-10-24T17:47:24.091Z,16.76
2022-10-24T17:49:51.022Z,16.70
2022-10-24T17:52:23.169Z,16.69
2022-10-24T17:54:50.997Z,16.69
2022-10-24T17:57:17.928Z,16.64
2022-10-24T17:59:45.409Z,16.65
2022-10-24T18:02:14.369Z,16.58
2022-10-24T18:04:42.909Z,16.62
2022-10-24T18:07:10.251Z,16.58
2022-10-24T18:09:39.957Z,16.58
2022-10-24T18:12:07.165Z,16.52
2022-10-24T18:14:37.425Z,16.52
2022-10-24T18:17:04.533Z,16.50
2022-10-24T18:19:31.626Z,16.53
2022-10-24T18:21:58.553Z,16.51
2022-10-24T18:24:25.548Z,16.49
2022-10-24T18:26:52.468Z,16.41
2022-10-24T18:29:19.421Z,16.41
2022-10-24T18:31:46.407Z,16.39
2022-10-24T18:34:13.360Z,16.44
2022-10-24T18:36:40.308Z,16.43
2022-10-24T18:39:07.292Z,16.36
2022-10-24T18:41:54.537Z,16.34
2022-10-24T18:44:33.491Z,16.38
2022-10-24T18:47:06.802Z,16.36
2022-10-24T18:49:35.469Z,16.35
2022-10-24T18:52:18.376Z,16.31
2022-10-24T18:55:04.235Z,16.29
2022-10-24T18:57:34.467Z,16.25
2022-10-24T19:00:01.596Z,16.26
2022-10-24T19:02:38.499Z,16.27
2022-10-24T19:05:20.240Z,16.28
2022-10-24T19:07:48.216Z,16.31
2022-10-24T19:10:24.144Z,16.27
2022-10-24T19:12:52.381Z,16.20
2022-10-24T19:15:19.955Z,16.24
2022-10-24T19:17:49.049Z,16.19
2022-10-24T19:20:23.411Z,16.15
2022-10-24T19:22:51.264Z,16.08
2022-10-24T19:25:18.943Z,16.05
2022-10-24T19:27:45.957Z,16.08
2022-10-24T19:30:13.505Z,16.04
2022-10-24T19:32:40.440Z,16.04
2022-10-24T19:35:07.959Z,16.06
2022-10-24T19:37:36.939Z,16.04
2022-10-24T19:40:05.399Z,16.02
2022-10-24T19:42:34.491Z,16.00
2022-10-24T19:45:02.085Z,15.97
2022-10-24T19:47:29.012Z,15.86
2022-10-24T19:49:56.013Z,15.85
2022-10-24T19:52:23.053Z,15.84
2022-10-24T19:54:50.025Z,15.82
2022-10-24T19:57:17.196Z,15.87
2022-10-24T19:59:44.210Z,15.89
2022-10-24T20:02:13.790Z,15.89
2022-10-24T20:04:41.390Z,15.85
2022-10-24T20:07:09.444Z,15.82
2022-10-24T20:09:37.071Z,15.83
2022-10-24T20:12:04.985Z,15.82
2022-10-24T20:14:32.002Z,15.81
2022-10-24T20:16:58.907Z,15.82
2022-10-24T20:19:25.897Z,15.77
2022-10-24T20:21:52.904Z,15.75
2022-10-24T20:24:20.049Z,15.79
2022-10-24T20:26:46.960Z,15.78
2022-10-24T20:29:15.148Z,15.77
2022-10-24T20:31:46.870Z,15.69
2022-10-24T20:34:15.283Z,15.77
2022-10-24T20:36:47.144Z,15.75
2022-10-24T20:39:20.898Z,15.64
2022-10-24T20:41:51.767Z,15.59
2022-10-24T20:44:21.201Z,15.48
2022-10-24T20:46:48.105Z,15.49
2022-10-24T20:49:15.119Z,15.52
2022-10-24T20:51:43.058Z,15.46
2022-10-24T20:54:10.985Z,15.49
2022-10-24T20:56:42.206Z,15.47
2022-10-24T20:59:11.807Z,15.48
2022-10-24T21:01:38.835Z,15.38
2022-10-24T21:04:05.903Z,15.37
2022-10-24T21:06:34.130Z,15.38
2022-10-24T21:09:04.962Z,15.33
2022-10-24T21:11:33.721Z,15.31
2022-10-24T21:14:07.292Z,15.31
2022-10-24T21:16:34.855Z,15.32
2022-10-24T21:19:02.223Z,15.23
2022-10-24T21:21:29.422Z,15.26
2022-10-24T21:24:03.943Z,15.28
2022-10-24T21:26:38.436Z,15.23
2022-10-24T21:29:31.607Z,15.24
2022-10-24T21:31:54.120Z,15.27
2022-10-24T21:34:22.067Z,15.26
2022-10-24T21:36:49.167Z,15.25
2022-10-24T21:39:17.331Z,15.23
2022-10-24T21:41:44.813Z,15.13
2022-10-24T21:44:12.362Z,15.13
2022-10-24T21:46:40.047Z,15.22
2022-10-24T21:49:06.964Z,15.18
2022-10-24T21:51:37.566Z,15.16
2022-10-24T21:54:23.538Z,15.14
2022-10-24T21:56:50.860Z,15.07
2022-10-24T21:59:20.742Z,15.06
2022-10-24T22:01:50.786Z,15.04
2022-10-24T22:04:18.885Z,15.05
2022-10-24T22:06:46.821Z,15.05
2022-10-24T22:09:21.281Z,15.05
2022-10-24T22:11:48.614Z,15.10
2022-10-24T22:14:17.838Z,15.02
2022-10-24T22:16:45.547Z,14.93
2022-10-24T22:19:14.389Z,14.96
2022-10-24T22:21:46.469Z,14.99
2022-10-24T22:24:21.500Z,14.98
2022-10-24T22:26:49.995Z,15.06
2022-10-24T22:29:21.527Z,15.09
2022-10-24T22:31:51.897Z,15.08
2022-10-24T22:34:25.334Z,15.10
2022-10-24T22:37:27.396Z,15.10
2022-10-24T22:39:54.617Z,15.09
2022-10-24T22:42:21.740Z,15.15
2022-10-24T22:44:50.812Z,15.10
2022-10-24T22:48:04.909Z,15.13
2022-10-24T22:50:56.436Z,15.13
2022-10-24T22:53:30.668Z,15.14
2022-10-24T22:56:33.258Z,15.09
2022-10-24T22:59:01.556Z,15.05
2022-10-24T23:01:57.877Z,15.02
2022-10-24T23:04:46.579Z,14.97
2022-10-24T23:08:03.161Z,14.90
2022-10-24T23:10:30.182Z,14.88
2022-10-24T23:12:57.504Z,14.74
2022-10-24T23:15:24.961Z,14.73
2022-10-24T23:17:52.492Z,14.66
2022-10-24T23:20:43.904Z,14.63
2022-10-24T23:23:28.753Z,14.63
2022-10-24T23:26:18.662Z,14.62
2022-10-24T23:29:27.983Z,14.56
2022-10-24T23:31:55.502Z,14.58
2022-10-24T23:34:23.027Z,14.54
2022-10-24T23:36:52.640Z,14.51
2022-10-24T23:41:48.499Z,14.44
2022-10-24T23:44:16.087Z,14.45
2022-10-24T23:47:11.170Z,14.39
2022-10-24T23:50:15.056Z,14.34
2022-10-24T23:53:05.670Z,14.27
2022-10-24T23:55:33.062Z,14.22
2022-10-24T23:58:01.082Z,14.19
